sensor_id;sensor_type;location;lat;lon;timestamp;temperature;humidity
42201;DHT22;27869;51.442;7.540;2023-04-15T00:00:42;5.10;99.90
42201;DHT22;27869;51.442;7.540;2023-04-15T00:03:09;5.10;99.90
42201;DHT22;27869;51.442;7.540;2023-04-15T00:05:37;5.00;99.90
42201;DHT22;27869;51.442;7.540;2023-04-15T00:08:04;5.00;99.90
42201;DHT22;27869;51.442;7.540;2023-04-15T00:10:31;5.00;99.90
42201;DHT22;27869;51.442;7.540;2023-04-15T00:12:58;5.00;99.90
42201;DHT22;27869;51.442;7.540;2023-04-15T00:15:24;5.00;99.90
42201;DHT22;27869;51.442;7.540;2023-04-15T00:17:52;4.90;99.90
42201;DHT22;27869;51.442;7.540;2023-04-15T00:20:19;4.90;99.90
42201;DHT22;27869;51.442;7.540;2023-04-15T00:22:47;4.90;99.90
42201;DHT22;27869;51.442;7.540;2023-04-15T00:25:14;4.80;99.90
42201;DHT22;27869;51.442;7.540;2023-04-15T00:27:41;4.80;99.90
42201;DHT22;27869;51.442;7.540;2023-04-15T00:30:08;4.80;99.90
42201;DHT22;27869;51.442;7.540;2023-04-15T00:32:36;4.80;99.90
42201;DHT22;27869;51.442;7.540;2023-04-15T00:35:03;4.80;99.90
42201;DHT22;27869;51.442;7.540;2023-04-15T00:37:30;4.70;99.90
42201;DHT22;27869;51.442;7.540;2023-04-15T00:40:01;4.70;99.90
42201;DHT22;27869;51.442;7.540;2023-04-15T00:42:30;4.70;99.90
42201;DHT22;27869;51.442;7.540;2023-04-15T00:44:57;4.70;99.90
42201;DHT22;27869;51.442;7.540;2023-04-15T00:47:25;4.70;99.90
42201;DHT22;27869;51.442;7.540;2023-04-15T00:49:53;4.70;99.90
42201;DHT22;27869;51.442;7.540;2023-04-15T00:52:20;4.70;99.90
42201;DHT22;27869;51.442;7.540;2023-04-15T00:54:47;4.60;99.90
42201;DHT22;27869;51.442;7.540;2023-04-15T00:57:17;4.70;99.90
42201;DHT22;27869;51.442;7.540;2023-04-15T00:59:44;4.60;99.90
42201;DHT22;27869;51.442;7.540;2023-04-15T01:02:11;4.60;99.90
42201;DHT22;27869;51.442;7.540;2023-04-15T01:04:38;4.60;99.90
42201;DHT22;27869;51.442;7.540;2023-04-15T01:07:05;4.50;99.90
42201;DHT22;27869;51.442;7.540;2023-04-15T01:09:32;4.50;99.90
42201;DHT22;27869;51.442;7.540;2023-04-15T01:11:59;4.50;99.90
42201;DHT22;27869;51.442;7.540;2023-04-15T01:14:28;4.50;99.90
42201;DHT22;27869;51.442;7.540;2023-04-15T01:16:55;4.50;99.90
42201;DHT22;27869;51.442;7.540;2023-04-15T01:19:23;4.50;99.90
42201;DHT22;27869;51.442;7.540;2023-04-15T01:21:50;4.50;99.90
42201;DHT22;27869;51.442;7.540;2023-04-15T01:24:18;4.50;99.90
42201;DHT22;27869;51.442;7.540;2023-04-15T01:26:47;4.40;99.90
42201;DHT22;27869;51.442;7.540;2023-04-15T01:29:15;4.40;99.90
42201;DHT22;27869;51.442;7.540;2023-04-15T01:31:49;4.40;99.90
42201;DHT22;27869;51.442;7.540;2023-04-15T01:34:16;4.30;99.90
42201;DHT22;27869;51.442;7.540;2023-04-15T01:36:43;4.30;99.90
42201;DHT22;27869;51.442;7.540;2023-04-15T01:39:10;4.20;99.90
42201;DHT22;27869;51.442;7.540;2023-04-15T01:41:37;4.20;99.90
42201;DHT22;27869;51.442;7.540;2023-04-15T01:44:06;4.20;99.90
42201;DHT22;27869;51.442;7.540;2023-04-15T01:46:33;4.10;99.90
42201;DHT22;27869;51.442;7.540;2023-04-15T01:49:00;4.10;99.90
42201;DHT22;27869;51.442;7.540;2023-04-15T01:51:27;4.10;99.90
42201;DHT22;27869;51.442;7.540;2023-04-15T01:53:54;4.00;99.90
42201;DHT22;27869;51.442;7.540;2023-04-15T01:56:21;4.00;99.90
42201;DHT22;27869;51.442;7.540;2023-04-15T01:58:48;4.00;99.90
42201;DHT22;27869;51.442;7.540;2023-04-15T02:01:16;3.90;99.90
42201;DHT22;27869;51.442;7.540;2023-04-15T02:03:45;3.90;99.90
42201;DHT22;27869;51.442;7.540;2023-04-15T02:06:12;3.90;99.90
42201;DHT22;27869;51.442;7.540;2023-04-15T02:08:39;3.90;99.90
42201;DHT22;27869;51.442;7.540;2023-04-15T02:11:06;3.80;99.90
42201;DHT22;27869;51.442;7.540;2023-04-15T02:13:33;3.80;99.90
42201;DHT22;27869;51.442;7.540;2023-04-15T02:16:00;3.80;99.90
42201;DHT22;27869;51.442;7.540;2023-04-15T02:18:32;3.70;99.90
42201;DHT22;27869;51.442;7.540;2023-04-15T02:20:59;3.70;99.90
42201;DHT22;27869;51.442;7.540;2023-04-15T02:23:26;3.70;99.90
42201;DHT22;27869;51.442;7.540;2023-04-15T02:25:53;3.70;99.90
42201;DHT22;27869;51.442;7.540;2023-04-15T02:28:20;3.70;99.90
42201;DHT22;27869;51.442;7.540;2023-04-15T02:30:47;3.60;99.90
42201;DHT22;27869;51.442;7.540;2023-04-15T02:33:15;3.60;99.90
42201;DHT22;27869;51.442;7.540;2023-04-15T02:35:43;3.60;99.90
42201;DHT22;27869;51.442;7.540;2023-04-15T02:38:11;3.50;99.90
42201;DHT22;27869;51.442;7.540;2023-04-15T02:40:38;3.50;99.90
42201;DHT22;27869;51.442;7.540;2023-04-15T02:43:06;3.50;99.90
42201;DHT22;27869;51.442;7.540;2023-04-15T02:45:33;3.50;99.90
42201;DHT22;27869;51.442;7.540;2023-04-15T02:48:00;3.50;99.90
42201;DHT22;27869;51.442;7.540;2023-04-15T02:50:30;3.50;99.90
42201;DHT22;27869;51.442;7.540;2023-04-15T02:52:58;3.50;99.90
42201;DHT22;27869;51.442;7.540;2023-04-15T02:55:27;3.50;99.90
42201;DHT22;27869;51.442;7.540;2023-04-15T02:57:54;3.50;99.90
42201;DHT22;27869;51.442;7.540;2023-04-15T03:00:21;3.50;99.90
42201;DHT22;27869;51.442;7.540;2023-04-15T03:02:49;3.50;99.90
42201;DHT22;27869;51.442;7.540;2023-04-15T03:05:21;3.40;99.90
42201;DHT22;27869;51.442;7.540;2023-04-15T03:07:49;3.40;99.90
42201;DHT22;27869;51.442;7.540;2023-04-15T03:10:17;3.40;99.90
42201;DHT22;27869;51.442;7.540;2023-04-15T03:12:44;3.40;99.90
42201;DHT22;27869;51.442;7.540;2023-04-15T03:15:11;3.40;99.90
42201;DHT22;27869;51.442;7.540;2023-04-15T03:17:38;3.40;99.90
42201;DHT22;27869;51.442;7.540;2023-04-15T03:20:06;3.30;99.90
42201;DHT22;27869;51.442;7.540;2023-04-15T03:22:33;3.30;99.90
42201;DHT22;27869;51.442;7.540;2023-04-15T03:25:00;3.30;99.90
42201;DHT22;27869;51.442;7.540;2023-04-15T03:27:28;3.30;99.90
42201;DHT22;27869;51.442;7.540;2023-04-15T03:29:58;3.20;99.90
42201;DHT22;27869;51.442;7.540;2023-04-15T03:32:24;3.20;99.90
42201;DHT22;27869;51.442;7.540;2023-04-15T03:34:51;3.20;99.90
42201;DHT22;27869;51.442;7.540;2023-04-15T03:37:18;3.20;99.90
42201;DHT22;27869;51.442;7.540;2023-04-15T03:39:45;3.20;99.90
42201;DHT22;27869;51.442;7.540;2023-04-15T03:42:12;3.10;99.90
42201;DHT22;27869;51.442;7.540;2023-04-15T03:44:40;3.10;99.90
42201;DHT22;27869;51.442;7.540;2023-04-15T03:47:07;3.10;99.90
42201;DHT22;27869;51.442;7.540;2023-04-15T03:49:35;3.10;99.90
42201;DHT22;27869;51.442;7.540;2023-04-15T03:52:02;3.10;99.90
42201;DHT22;27869;51.442;7.540;2023-04-15T03:54:28;3.10;99.90
42201;DHT22;27869;51.442;7.540;2023-04-15T03:56:56;3.00;99.90
42201;DHT22;27869;51.442;7.540;2023-04-15T03:59:22;3.00;99.90
42201;DHT22;27869;51.442;7.540;2023-04-15T04:01:51;3.00;99.90
42201;DHT22;27869;51.442;7.540;2023-04-15T04:04:18;3.00;99.90
42201;DHT22;27869;51.442;7.540;2023-04-15T04:06:46;3.00;99.90
42201;DHT22;27869;51.442;7.540;2023-04-15T04:09:13;3.00;99.90
42201;DHT22;27869;51.442;7.540;2023-04-15T04:11:40;3.00;99.90
42201;DHT22;27869;51.442;7.540;2023-04-15T04:14:07;3.00;99.90
42201;DHT22;27869;51.442;7.540;2023-04-15T04:16:34;2.90;99.90
42201;DHT22;27869;51.442;7.540;2023-04-15T04:19:02;2.90;99.90
42201;DHT22;27869;51.442;7.540;2023-04-15T04:21:29;2.90;99.90
42201;DHT22;27869;51.442;7.540;2023-04-15T04:23:58;2.90;99.90
42201;DHT22;27869;51.442;7.540;2023-04-15T04:26:25;2.90;99.90
42201;DHT22;27869;51.442;7.540;2023-04-15T04:28:53;2.90;99.90
42201;DHT22;27869;51.442;7.540;2023-04-15T04:31:20;2.80;99.90
42201;DHT22;27869;51.442;7.540;2023-04-15T04:33:50;2.80;99.90
42201;DHT22;27869;51.442;7.540;2023-04-15T04:36:18;2.80;99.90
42201;DHT22;27869;51.442;7.540;2023-04-15T04:38:45;2.80;99.90
42201;DHT22;27869;51.442;7.540;2023-04-15T04:41:12;2.80;99.90
42201;DHT22;27869;51.442;7.540;2023-04-15T04:43:39;2.70;99.90
42201;DHT22;27869;51.442;7.540;2023-04-15T04:46:06;2.70;99.90
42201;DHT22;27869;51.442;7.540;2023-04-15T04:48:33;2.70;99.90
42201;DHT22;27869;51.442;7.540;2023-04-15T04:51:00;2.70;99.90
42201;DHT22;27869;51.442;7.540;2023-04-15T04:53:29;2.70;99.90
42201;DHT22;27869;51.442;7.540;2023-04-15T04:55:56;2.70;99.90
42201;DHT22;27869;51.442;7.540;2023-04-15T04:58:23;2.70;99.90
42201;DHT22;27869;51.442;7.540;2023-04-15T05:00:50;2.70;99.90
42201;DHT22;27869;51.442;7.540;2023-04-15T05:03:17;2.70;99.90
42201;DHT22;27869;51.442;7.540;2023-04-15T05:05:44;2.70;99.90
42201;DHT22;27869;51.442;7.540;2023-04-15T05:08:11;2.70;99.90
42201;DHT22;27869;51.442;7.540;2023-04-15T05:10:39;2.70;99.90
42201;DHT22;27869;51.442;7.540;2023-04-15T05:13:06;2.70;99.90
42201;DHT22;27869;51.442;7.540;2023-04-15T05:15:33;2.70;99.90
42201;DHT22;27869;51.442;7.540;2023-04-15T05:18:01;2.70;99.90
42201;DHT22;27869;51.442;7.540;2023-04-15T05:20:28;2.70;99.90
42201;DHT22;27869;51.442;7.540;2023-04-15T05:22:55;2.70;99.90
42201;DHT22;27869;51.442;7.540;2023-04-15T05:25:22;2.70;99.90
42201;DHT22;27869;51.442;7.540;2023-04-15T05:27:50;2.70;99.90
42201;DHT22;27869;51.442;7.540;2023-04-15T05:30:17;2.80;99.90
42201;DHT22;27869;51.442;7.540;2023-04-15T05:32:44;2.80;99.90
42201;DHT22;27869;51.442;7.540;2023-04-15T05:35:11;2.80;99.90
42201;DHT22;27869;51.442;7.540;2023-04-15T05:37:38;2.80;99.90
42201;DHT22;27869;51.442;7.540;2023-04-15T05:40:05;2.80;99.90
42201;DHT22;27869;51.442;7.540;2023-04-15T05:42:35;2.90;99.90
42201;DHT22;27869;51.442;7.540;2023-04-15T05:45:04;2.90;99.90
42201;DHT22;27869;51.442;7.540;2023-04-15T05:47:34;2.90;99.90
42201;DHT22;27869;51.442;7.540;2023-04-15T05:50:01;3.00;99.90
42201;DHT22;27869;51.442;7.540;2023-04-15T05:52:27;3.00;99.90
42201;DHT22;27869;51.442;7.540;2023-04-15T05:54:54;3.00;99.90
42201;DHT22;27869;51.442;7.540;2023-04-15T05:57:21;3.00;99.90
42201;DHT22;27869;51.442;7.540;2023-04-15T05:59:48;3.10;99.90
42201;DHT22;27869;51.442;7.540;2023-04-15T06:02:18;3.10;99.90
42201;DHT22;27869;51.442;7.540;2023-04-15T06:04:45;3.20;99.90
42201;DHT22;27869;51.442;7.540;2023-04-15T06:07:13;3.20;99.90
42201;DHT22;27869;51.442;7.540;2023-04-15T06:09:40;3.20;99.90
42201;DHT22;27869;51.442;7.540;2023-04-15T06:12:06;3.30;99.90
42201;DHT22;27869;51.442;7.540;2023-04-15T06:14:36;3.40;99.90
42201;DHT22;27869;51.442;7.540;2023-04-15T06:17:06;3.40;99.90
42201;DHT22;27869;51.442;7.540;2023-04-15T06:19:34;3.50;99.90
42201;DHT22;27869;51.442;7.540;2023-04-15T06:22:02;3.50;99.90
42201;DHT22;27869;51.442;7.540;2023-04-15T06:24:29;3.60;99.90
42201;DHT22;27869;51.442;7.540;2023-04-15T06:26:57;3.70;99.90
42201;DHT22;27869;51.442;7.540;2023-04-15T06:29:24;3.70;99.90
42201;DHT22;27869;51.442;7.540;2023-04-15T06:31:51;3.80;99.90
42201;DHT22;27869;51.442;7.540;2023-04-15T06:34:18;3.80;99.90
42201;DHT22;27869;51.442;7.540;2023-04-15T06:36:46;3.90;99.90
42201;DHT22;27869;51.442;7.540;2023-04-15T06:39:13;4.00;99.90
42201;DHT22;27869;51.442;7.540;2023-04-15T06:41:40;4.00;99.90
42201;DHT22;27869;51.442;7.540;2023-04-15T06:44:07;4.10;99.90
42201;DHT22;27869;51.442;7.540;2023-04-15T06:46:34;4.10;99.90
42201;DHT22;27869;51.442;7.540;2023-04-15T06:49:01;4.20;99.90
42201;DHT22;27869;51.442;7.540;2023-04-15T06:51:28;4.20;99.90
42201;DHT22;27869;51.442;7.540;2023-04-15T06:53:57;4.30;99.90
42201;DHT22;27869;51.442;7.540;2023-04-15T06:56:24;4.30;99.90
42201;DHT22;27869;51.442;7.540;2023-04-15T06:58:51;4.40;99.90
42201;DHT22;27869;51.442;7.540;2023-04-15T07:01:18;4.40;99.90
42201;DHT22;27869;51.442;7.540;2023-04-15T07:03:45;4.50;99.90
42201;DHT22;27869;51.442;7.540;2023-04-15T07:06:12;4.60;99.90
42201;DHT22;27869;51.442;7.540;2023-04-15T07:08:39;4.60;99.90
42201;DHT22;27869;51.442;7.540;2023-04-15T07:11:08;4.70;99.90
42201;DHT22;27869;51.442;7.540;2023-04-15T07:13:35;4.80;99.90
42201;DHT22;27869;51.442;7.540;2023-04-15T07:16:02;4.90;99.90
42201;DHT22;27869;51.442;7.540;2023-04-15T07:18:28;4.90;99.90
42201;DHT22;27869;51.442;7.540;2023-04-15T07:20:55;5.00;99.90
42201;DHT22;27869;51.442;7.540;2023-04-15T07:23:22;5.10;99.90
42201;DHT22;27869;51.442;7.540;2023-04-15T07:25:49;5.10;99.90
42201;DHT22;27869;51.442;7.540;2023-04-15T07:28:18;5.20;99.90
42201;DHT22;27869;51.442;7.540;2023-04-15T07:30:45;5.30;99.90
42201;DHT22;27869;51.442;7.540;2023-04-15T07:33:12;5.40;99.90
42201;DHT22;27869;51.442;7.540;2023-04-15T07:35:39;5.50;99.90
42201;DHT22;27869;51.442;7.540;2023-04-15T07:38:06;5.50;99.90
42201;DHT22;27869;51.442;7.540;2023-04-15T07:40:33;5.60;99.90
42201;DHT22;27869;51.442;7.540;2023-04-15T07:42:59;5.60;99.90
42201;DHT22;27869;51.442;7.540;2023-04-15T07:45:28;5.70;99.90
42201;DHT22;27869;51.442;7.540;2023-04-15T07:47:55;5.80;99.90
42201;DHT22;27869;51.442;7.540;2023-04-15T07:50:22;5.90;99.90
42201;DHT22;27869;51.442;7.540;2023-04-15T07:52:49;6.00;99.90
42201;DHT22;27869;51.442;7.540;2023-04-15T07:55:17;6.10;99.90
42201;DHT22;27869;51.442;7.540;2023-04-15T07:57:47;6.20;99.90
42201;DHT22;27869;51.442;7.540;2023-04-15T08:00:15;6.20;99.90
42201;DHT22;27869;51.442;7.540;2023-04-15T08:02:43;6.30;99.90
42201;DHT22;27869;51.442;7.540;2023-04-15T08:05:11;6.40;99.90
42201;DHT22;27869;51.442;7.540;2023-04-15T08:07:40;6.60;99.90
42201;DHT22;27869;51.442;7.540;2023-04-15T08:10:07;6.70;99.90
42201;DHT22;27869;51.442;7.540;2023-04-15T08:12:34;6.80;99.90
42201;DHT22;27869;51.442;7.540;2023-04-15T08:15:01;6.90;99.90
42201;DHT22;27869;51.442;7.540;2023-04-15T08:17:28;7.10;99.90
42201;DHT22;27869;51.442;7.540;2023-04-15T08:19:57;7.30;99.90
42201;DHT22;27869;51.442;7.540;2023-04-15T08:22:24;7.40;99.90
42201;DHT22;27869;51.442;7.540;2023-04-15T08:24:51;7.50;99.90
42201;DHT22;27869;51.442;7.540;2023-04-15T08:27:18;7.60;99.90
42201;DHT22;27869;51.442;7.540;2023-04-15T08:29:45;7.70;99.90
42201;DHT22;27869;51.442;7.540;2023-04-15T08:32:12;7.80;99.90
42201;DHT22;27869;51.442;7.540;2023-04-15T08:34:39;7.90;99.90
42201;DHT22;27869;51.442;7.540;2023-04-15T08:37:07;7.90;99.90
42201;DHT22;27869;51.442;7.540;2023-04-15T08:39:34;8.00;99.90
42201;DHT22;27869;51.442;7.540;2023-04-15T08:42:03;8.00;99.90
42201;DHT22;27869;51.442;7.540;2023-04-15T08:44:33;8.10;99.90
42201;DHT22;27869;51.442;7.540;2023-04-15T08:47:02;8.10;99.90
42201;DHT22;27869;51.442;7.540;2023-04-15T08:49:31;8.20;99.90
42201;DHT22;27869;51.442;7.540;2023-04-15T08:51:58;8.20;99.90
42201;DHT22;27869;51.442;7.540;2023-04-15T08:54:27;8.30;99.90
42201;DHT22;27869;51.442;7.540;2023-04-15T08:56:56;8.30;99.90
42201;DHT22;27869;51.442;7.540;2023-04-15T08:59:24;8.40;99.90
42201;DHT22;27869;51.442;7.540;2023-04-15T09:01:51;8.40;99.90
42201;DHT22;27869;51.442;7.540;2023-04-15T09:04:18;8.50;99.90
42201;DHT22;27869;51.442;7.540;2023-04-15T09:06:46;8.60;99.90
42201;DHT22;27869;51.442;7.540;2023-04-15T09:09:13;8.60;99.90
42201;DHT22;27869;51.442;7.540;2023-04-15T09:11:41;8.60;99.90
42201;DHT22;27869;51.442;7.540;2023-04-15T09:14:08;8.70;99.90
42201;DHT22;27869;51.442;7.540;2023-04-15T09:16:57;8.70;99.90
42201;DHT22;27869;51.442;7.540;2023-04-15T09:19:24;8.80;99.90
42201;DHT22;27869;51.442;7.540;2023-04-15T09:21:52;8.80;99.90
42201;DHT22;27869;51.442;7.540;2023-04-15T09:24:20;8.90;99.90
42201;DHT22;27869;51.442;7.540;2023-04-15T09:26:51;8.90;99.90
42201;DHT22;27869;51.442;7.540;2023-04-15T09:29:19;8.90;99.90
42201;DHT22;27869;51.442;7.540;2023-04-15T09:31:46;9.00;99.90
42201;DHT22;27869;51.442;7.540;2023-04-15T09:34:12;9.00;99.90
42201;DHT22;27869;51.442;7.540;2023-04-15T09:36:51;9.00;99.90
42201;DHT22;27869;51.442;7.540;2023-04-15T09:39:19;9.10;99.90
42201;DHT22;27869;51.442;7.540;2023-04-15T09:41:47;9.10;99.90
42201;DHT22;27869;51.442;7.540;2023-04-15T09:44:29;9.20;99.90
42201;DHT22;27869;51.442;7.540;2023-04-15T09:46:56;9.20;99.90
42201;DHT22;27869;51.442;7.540;2023-04-15T09:49:23;9.20;99.90
42201;DHT22;27869;51.442;7.540;2023-04-15T09:51:50;9.20;99.90
42201;DHT22;27869;51.442;7.540;2023-04-15T09:54:18;9.20;99.90
42201;DHT22;27869;51.442;7.540;2023-04-15T09:56:47;9.20;99.90
42201;DHT22;27869;51.442;7.540;2023-04-15T09:59:14;9.20;99.90
42201;DHT22;27869;51.442;7.540;2023-04-15T10:01:42;9.20;99.90
42201;DHT22;27869;51.442;7.540;2023-04-15T10:04:09;9.20;99.90
42201;DHT22;27869;51.442;7.540;2023-04-15T10:06:36;9.20;99.90
42201;DHT22;27869;51.442;7.540;2023-04-15T10:09:05;9.20;99.90
42201;DHT22;27869;51.442;7.540;2023-04-15T10:11:32;9.20;99.90
42201;DHT22;27869;51.442;7.540;2023-04-15T10:14:02;9.20;99.90
42201;DHT22;27869;51.442;7.540;2023-04-15T10:16:31;9.20;99.90
42201;DHT22;27869;51.442;7.540;2023-04-15T10:19:00;9.20;99.90
42201;DHT22;27869;51.442;7.540;2023-04-15T10:21:29;9.30;99.90
42201;DHT22;27869;51.442;7.540;2023-04-15T10:23:57;9.30;99.90
42201;DHT22;27869;51.442;7.540;2023-04-15T10:26:24;9.30;99.90
42201;DHT22;27869;51.442;7.540;2023-04-15T10:28:52;9.30;99.90
42201;DHT22;27869;51.442;7.540;2023-04-15T10:31:20;9.30;99.90
42201;DHT22;27869;51.442;7.540;2023-04-15T10:33:48;9.40;99.90
42201;DHT22;27869;51.442;7.540;2023-04-15T10:36:18;9.40;99.90
42201;DHT22;27869;51.442;7.540;2023-04-15T10:38:45;9.40;99.90
42201;DHT22;27869;51.442;7.540;2023-04-15T10:41:16;9.40;99.90
42201;DHT22;27869;51.442;7.540;2023-04-15T10:43:48;9.40;99.90
42201;DHT22;27869;51.442;7.540;2023-04-15T10:46:21;9.40;99.90
42201;DHT22;27869;51.442;7.540;2023-04-15T10:48:50;9.40;99.90
42201;DHT22;27869;51.442;7.540;2023-04-15T10:51:27;9.40;99.90
42201;DHT22;27869;51.442;7.540;2023-04-15T10:53:58;9.40;99.90
42201;DHT22;27869;51.442;7.540;2023-04-15T10:56:27;9.40;99.90
42201;DHT22;27869;51.442;7.540;2023-04-15T10:58:54;9.40;99.90
42201;DHT22;27869;51.442;7.540;2023-04-15T11:01:49;9.30;99.90
42201;DHT22;27869;51.442;7.540;2023-04-15T11:04:50;9.30;99.90
42201;DHT22;27869;51.442;7.540;2023-04-15T11:07:33;9.30;99.90
42201;DHT22;27869;51.442;7.540;2023-04-15T11:10:00;9.30;99.90
42201;DHT22;27869;51.442;7.540;2023-04-15T11:12:33;9.30;99.90
42201;DHT22;27869;51.442;7.540;2023-04-15T11:15:26;9.30;99.90
42201;DHT22;27869;51.442;7.540;2023-04-15T11:17:54;9.30;99.90
42201;DHT22;27869;51.442;7.540;2023-04-15T11:20:21;9.30;99.90
42201;DHT22;27869;51.442;7.540;2023-04-15T11:22:49;9.30;99.90
42201;DHT22;27869;51.442;7.540;2023-04-15T11:25:23;9.30;99.90
42201;DHT22;27869;51.442;7.540;2023-04-15T11:27:50;9.20;99.90
42201;DHT22;27869;51.442;7.540;2023-04-15T11:30:20;9.20;99.90
42201;DHT22;27869;51.442;7.540;2023-04-15T11:32:48;9.20;99.90
42201;DHT22;27869;51.442;7.540;2023-04-15T11:35:17;9.20;99.90
42201;DHT22;27869;51.442;7.540;2023-04-15T11:37:45;9.20;99.90
42201;DHT22;27869;51.442;7.540;2023-04-15T11:40:13;9.20;99.90
42201;DHT22;27869;51.442;7.540;2023-04-15T11:42:42;9.20;99.90
42201;DHT22;27869;51.442;7.540;2023-04-15T11:45:11;9.10;99.90
42201;DHT22;27869;51.442;7.540;2023-04-15T11:47:39;9.10;99.90
42201;DHT22;27869;51.442;7.540;2023-04-15T11:50:21;9.20;99.90
42201;DHT22;27869;51.442;7.540;2023-04-15T11:52:52;9.20;99.90
42201;DHT22;27869;51.442;7.540;2023-04-15T11:55:19;9.20;99.90
42201;DHT22;27869;51.442;7.540;2023-04-15T11:57:46;9.20;99.90
42201;DHT22;27869;51.442;7.540;2023-04-15T12:00:14;9.20;99.90
42201;DHT22;27869;51.442;7.540;2023-04-15T12:02:42;9.20;99.90
42201;DHT22;27869;51.442;7.540;2023-04-15T12:05:09;9.10;99.90
42201;DHT22;27869;51.442;7.540;2023-04-15T12:07:59;9.20;99.90
42201;DHT22;27869;51.442;7.540;2023-04-15T12:10:26;9.20;99.90
42201;DHT22;27869;51.442;7.540;2023-04-15T12:12:53;9.20;99.90
42201;DHT22;27869;51.442;7.540;2023-04-15T12:15:21;9.20;99.90
42201;DHT22;27869;51.442;7.540;2023-04-15T12:17:53;9.20;99.90
42201;DHT22;27869;51.442;7.540;2023-04-15T12:20:24;9.20;99.90
42201;DHT22;27869;51.442;7.540;2023-04-15T12:22:51;9.20;99.90
42201;DHT22;27869;51.442;7.540;2023-04-15T12:25:33;9.20;99.90
42201;DHT22;27869;51.442;7.540;2023-04-15T12:28:00;9.20;99.90
42201;DHT22;27869;51.442;7.540;2023-04-15T12:30:27;9.20;99.90
42201;DHT22;27869;51.442;7.540;2023-04-15T12:32:54;9.20;99.90
42201;DHT22;27869;51.442;7.540;2023-04-15T12:35:21;9.20;99.90
42201;DHT22;27869;51.442;7.540;2023-04-15T12:37:48;9.20;99.90
42201;DHT22;27869;51.442;7.540;2023-04-15T12:40:18;9.10;99.90
42201;DHT22;27869;51.442;7.540;2023-04-15T12:42:46;9.20;99.90
42201;DHT22;27869;51.442;7.540;2023-04-15T12:45:13;9.10;99.90
42201;DHT22;27869;51.442;7.540;2023-04-15T12:47:40;9.20;99.90
42201;DHT22;27869;51.442;7.540;2023-04-15T12:50:07;9.20;99.90
42201;DHT22;27869;51.442;7.540;2023-04-15T12:52:34;9.20;99.90
42201;DHT22;27869;51.442;7.540;2023-04-15T12:55:01;9.30;99.90
42201;DHT22;27869;51.442;7.540;2023-04-15T12:57:28;9.20;99.90
42201;DHT22;27869;51.442;7.540;2023-04-15T12:59:56;9.20;99.90
42201;DHT22;27869;51.442;7.540;2023-04-15T13:02:23;9.20;99.90
42201;DHT22;27869;51.442;7.540;2023-04-15T13:04:52;9.30;99.90
42201;DHT22;27869;51.442;7.540;2023-04-15T13:07:19;9.20;99.90
42201;DHT22;27869;51.442;7.540;2023-04-15T13:09:46;9.30;99.90
42201;DHT22;27869;51.442;7.540;2023-04-15T13:12:13;9.20;99.90
42201;DHT22;27869;51.442;7.540;2023-04-15T13:14:41;9.30;99.90
42201;DHT22;27869;51.442;7.540;2023-04-15T13:17:09;9.30;99.90
42201;DHT22;27869;51.442;7.540;2023-04-15T13:19:37;9.30;99.90
42201;DHT22;27869;51.442;7.540;2023-04-15T13:22:04;9.30;99.90
42201;DHT22;27869;51.442;7.540;2023-04-15T13:24:32;9.30;99.90
42201;DHT22;27869;51.442;7.540;2023-04-15T13:26:59;9.30;99.90
42201;DHT22;27869;51.442;7.540;2023-04-15T13:29:27;9.20;99.90
42201;DHT22;27869;51.442;7.540;2023-04-15T13:31:54;9.20;99.90
42201;DHT22;27869;51.442;7.540;2023-04-15T13:34:22;9.20;99.90
42201;DHT22;27869;51.442;7.540;2023-04-15T13:36:49;9.30;99.90
42201;DHT22;27869;51.442;7.540;2023-04-15T13:39:16;9.20;99.90
42201;DHT22;27869;51.442;7.540;2023-04-15T13:41:43;9.20;99.90
42201;DHT22;27869;51.442;7.540;2023-04-15T13:44:10;9.20;99.90
42201;DHT22;27869;51.442;7.540;2023-04-15T13:46:37;9.20;99.90
42201;DHT22;27869;51.442;7.540;2023-04-15T13:49:05;9.20;99.90
42201;DHT22;27869;51.442;7.540;2023-04-15T13:51:33;9.20;99.90
42201;DHT22;27869;51.442;7.540;2023-04-15T13:54:01;9.20;99.90
42201;DHT22;27869;51.442;7.540;2023-04-15T13:56:30;9.20;99.90
42201;DHT22;27869;51.442;7.540;2023-04-15T13:58:57;9.30;99.90
42201;DHT22;27869;51.442;7.540;2023-04-15T14:01:26;9.20;99.90
42201;DHT22;27869;51.442;7.540;2023-04-15T14:03:53;9.20;99.90
42201;DHT22;27869;51.442;7.540;2023-04-15T14:06:21;9.20;99.90
42201;DHT22;27869;51.442;7.540;2023-04-15T14:08:49;9.20;99.90
42201;DHT22;27869;51.442;7.540;2023-04-15T14:11:16;9.20;99.90
42201;DHT22;27869;51.442;7.540;2023-04-15T14:13:43;9.20;99.90
42201;DHT22;27869;51.442;7.540;2023-04-15T14:16:10;9.20;99.90
42201;DHT22;27869;51.442;7.540;2023-04-15T14:18:37;9.20;99.90
42201;DHT22;27869;51.442;7.540;2023-04-15T14:21:04;9.30;99.90
42201;DHT22;27869;51.442;7.540;2023-04-15T14:23:32;9.20;99.90
42201;DHT22;27869;51.442;7.540;2023-04-15T14:26:00;9.30;99.90
42201;DHT22;27869;51.442;7.540;2023-04-15T14:28:27;9.30;99.90
42201;DHT22;27869;51.442;7.540;2023-04-15T14:30:54;9.20;99.90
42201;DHT22;27869;51.442;7.540;2023-04-15T14:33:21;9.20;99.90
42201;DHT22;27869;51.442;7.540;2023-04-15T14:35:49;9.20;99.90
42201;DHT22;27869;51.442;7.540;2023-04-15T14:38:16;9.20;99.90
42201;DHT22;27869;51.442;7.540;2023-04-15T14:40:43;9.20;99.90
42201;DHT22;27869;51.442;7.540;2023-04-15T14:43:14;9.20;99.90
42201;DHT22;27869;51.442;7.540;2023-04-15T14:45:41;9.20;99.90
42201;DHT22;27869;51.442;7.540;2023-04-15T14:48:08;9.20;99.90
42201;DHT22;27869;51.442;7.540;2023-04-15T14:50:37;9.20;99.90
42201;DHT22;27869;51.442;7.540;2023-04-15T14:53:04;9.20;99.90
42201;DHT22;27869;51.442;7.540;2023-04-15T14:55:32;9.20;99.90
42201;DHT22;27869;51.442;7.540;2023-04-15T14:57:59;9.10;99.90
42201;DHT22;27869;51.442;7.540;2023-04-15T15:00:28;9.10;99.90
42201;DHT22;27869;51.442;7.540;2023-04-15T15:02:55;9.10;99.90
42201;DHT22;27869;51.442;7.540;2023-04-15T15:05:22;9.10;99.90
42201;DHT22;27869;51.442;7.540;2023-04-15T15:07:49;9.10;99.90
42201;DHT22;27869;51.442;7.540;2023-04-15T15:10:16;9.10;99.90
42201;DHT22;27869;51.442;7.540;2023-04-15T15:12:43;9.10;99.90
42201;DHT22;27869;51.442;7.540;2023-04-15T15:15:10;9.10;99.90
42201;DHT22;27869;51.442;7.540;2023-04-15T15:17:38;9.10;99.90
42201;DHT22;27869;51.442;7.540;2023-04-15T15:20:06;9.10;99.90
42201;DHT22;27869;51.442;7.540;2023-04-15T15:22:33;9.00;99.90
42201;DHT22;27869;51.442;7.540;2023-04-15T15:25:00;9.00;99.90
42201;DHT22;27869;51.442;7.540;2023-04-15T15:27:27;9.00;99.90
42201;DHT22;27869;51.442;7.540;2023-04-15T15:29:55;9.00;99.90
42201;DHT22;27869;51.442;7.540;2023-04-15T15:32:22;9.00;99.90
42201;DHT22;27869;51.442;7.540;2023-04-15T15:34:50;8.90;99.90
42201;DHT22;27869;51.442;7.540;2023-04-15T15:37:17;8.90;99.90
42201;DHT22;27869;51.442;7.540;2023-04-15T15:39:44;8.90;99.90
42201;DHT22;27869;51.442;7.540;2023-04-15T15:42:11;8.80;99.90
42201;DHT22;27869;51.442;7.540;2023-04-15T15:44:38;8.80;99.90
42201;DHT22;27869;51.442;7.540;2023-04-15T15:47:05;8.80;99.90
42201;DHT22;27869;51.442;7.540;2023-04-15T15:49:32;8.80;99.90